EHKD/DHR METAR and TAF weather

Enter ICAO airport designator
Station Type Date Time Source
EHKD METAR 2021/09/24 00:25 UTC NOAA

EHKD 240025Z AUTO 25005KT 9999 OVC040 16/13 Q1016 BLU


Station Type Date Time Source
EHKD Decoded METAR 2021/09/24 00:25 UTC NOAA

De Kooy, Netherlands (EHKD) 52-55N 004-47E 14M
Sep 23, 2021 - 08:25 PM EDT / 2021.09.24 0025 UTC
Wind: from the WSW (250 degrees) at 6 MPH (5 KT):0
Visibility: greater than 7 mile(s):0
Sky conditions: overcast
Temperature: 60 F (16 C)
Dew Point: 55 F (13 C)
Relative Humidity: 82%
Pressure (altimeter): 30.00 in. Hg (1016 hPa)
ob: EHKD 240025Z AUTO 25005KT 9999 OVC040 16/13 Q1016 BLU
cycle: 0

Station Type Date Time Source
EHKD TAF 2021/09/23 17:33 UTC NOAA

TAF TAF EHKD 231650Z 2317/2405 31015G25KT 9999 FEW018 SCT022 BKN030
BECMG 2317/2319 32012KT
BECMG 2320/2322 32006KT
BECMG 2323/2402 28006KT

Example: see airport list